Time;durP1;ratioP1;P1;durP2;ratioP2;P2;SDS_P1;SDS_P2;PMS_P1;PMS_P2;Temp;Humidity;BMP_temperature;BMP_pressure;BME280_temperature;BME280_humidity;BME280_pressure;Samples;Min_cycle;Max_cycle;Signal;HPM_P1;HPM_P2
2020/12/22 00:01:16;;;;;;;19.15;12.15;;;;;;;8.74;100.00;100254.25;4974952;28;20048;-79
2020/12/22 00:03:43;;;;;;;17.80;13.15;;;;;;;8.66;100.00;100243.13;4964715;28;20054;-78
2020/12/22 00:06:11;;;;;;;17.85;12.55;;;;;;;8.72;100.00;100237.63;4974169;28;20830;-82
2020/12/22 00:08:39;;;;;;;20.77;12.75;;;;;;;8.76;100.00;100233.94;4965783;28;20047;-79
2020/12/22 00:11:06;;;;;;;16.42;12.38;;;;;;;8.72;100.00;100224.41;4965546;28;20046;-79
2020/12/22 00:13:32;;;;;;;15.70;11.90;;;;;;;8.72;100.00;100221.78;4967065;28;20485;-80
2020/12/22 00:15:58;;;;;;;14.25;11.32;;;;;;;8.74;100.00;100225.22;4970143;28;20165;-79
2020/12/22 00:18:25;;;;;;;14.48;11.05;;;;;;;8.76;100.00;100220.72;4973404;28;20047;-79
2020/12/22 00:20:51;;;;;;;12.90;10.52;;;;;;;8.78;100.00;100217.09;4969118;28;20055;-82
2020/12/22 00:23:18;;;;;;;13.35;10.43;;;;;;;8.80;100.00;100209.13;4974880;28;20632;-79
2020/12/22 00:25:46;;;;;;;14.73;10.45;;;;;;;8.78;100.00;100206.53;4983842;28;20116;-78
2020/12/22 00:28:13;;;;;;;12.48;10.10;;;;;;;8.81;100.00;100207.34;4976475;28;20130;-77
2020/12/22 00:30:41;;;;;;;11.25;9.05;;;;;;;8.79;100.00;100200.34;4973523;28;20057;-75
2020/12/22 00:33:07;;;;;;;12.40;9.07;;;;;;;8.81;100.00;100207.34;4967876;28;20051;-80
2020/12/22 00:35:34;;;;;;;12.45;9.27;;;;;;;8.82;100.00;100217.81;4975309;28;20698;-77
2020/12/22 00:38:01;;;;;;;11.43;8.38;;;;;;;8.78;100.00;100210.97;4977929;28;20134;-77
2020/12/22 00:40:28;;;;;;;10.20;7.95;;;;;;;8.83;100.00;100210.75;4994638;28;20058;-78
2020/12/22 00:42:54;;;;;;;9.68;7.35;;;;;;;8.87;100.00;100199.13;4987727;28;20109;-78
2020/12/22 00:45:22;;;;;;;10.00;8.10;;;;;;;8.89;100.00;100207.84;4989408;28;20046;-79
2020/12/22 00:47:48;;;;;;;10.73;7.20;;;;;;;8.89;100.00;100214.00;4967687;28;20065;-78
2020/12/22 00:50:16;;;;;;;9.75;7.47;;;;;;;8.91;100.00;100211.28;4976125;28;20094;-79
2020/12/22 00:52:46;;;;;;;9.68;7.53;;;;;;;8.93;100.00;100220.88;4976283;28;20470;-78
2020/12/22 00:55:13;;;;;;;8.55;6.97;;;;;;;8.95;100.00;100228.72;4969865;28;20063;-81
2020/12/22 00:57:39;;;;;;;10.32;7.40;;;;;;;8.94;100.00;100235.78;4975528;28;20110;-79
2020/12/22 01:00:07;;;;;;;8.60;7.50;;;;;;;8.96;100.00;100225.16;4963240;28;20046;-77
2020/12/22 01:02:34;;;;;;;9.38;7.60;;;;;;;8.99;100.00;100228.50;4970849;28;20146;-82
2020/12/22 01:05:01;;;;;;;9.52;7.75;;;;;;;8.99;100.00;100220.59;4970648;28;20122;-78
2020/12/22 01:07:27;;;;;;;9.32;7.72;;;;;;;9.02;100.00;100236.31;4973527;28;20339;-78
2020/12/22 01:09:53;;;;;;;9.10;7.60;;;;;;;9.02;100.00;100238.94;4970736;28;20038;-78
2020/12/22 01:12:20;;;;;;;8.50;7.43;;;;;;;9.06;100.00;100242.31;4970061;28;20435;-78
2020/12/22 01:14:46;;;;;;;8.70;7.22;;;;;;;9.06;100.00;100247.59;4970350;28;20042;-80
2020/12/22 01:17:12;;;;;;;10.00;7.90;;;;;;;9.06;100.00;100251.09;4973436;28;20047;-80
2020/12/22 01:19:39;;;;;;;12.70;7.90;;;;;;;9.10;100.00;100254.50;4973410;28;20043;-79
2020/12/22 01:22:05;;;;;;;9.38;7.95;;;;;;;9.09;100.00;100247.47;4973083;28;20433;-78
2020/12/22 01:24:31;;;;;;;8.50;7.63;;;;;;;9.11;100.00;100250.91;4969277;28;20049;-77
2020/12/22 01:26:58;;;;;;;9.55;7.47;;;;;;;9.10;100.00;100233.34;4978106;28;20043;-80
2020/12/22 01:29:24;;;;;;;8.70;7.28;;;;;;;9.10;100.00;100218.38;4982595;28;20159;-78
2020/12/22 01:31:50;;;;;;;8.02;6.97;;;;;;;9.10;100.00;100221.00;4973874;28;20046;-77
2020/12/22 01:34:17;;;;;;;9.07;7.47;;;;;;;9.11;100.00;100229.78;4971138;28;20042;-78
2020/12/22 01:36:44;;;;;;;10.13;7.35;;;;;;;9.10;100.00;100206.94;4960448;28;20071;-75
2020/12/22 01:39:10;;;;;;;8.95;6.72;;;;;;;9.10;100.00;100191.09;4955787;28;20047;-78
2020/12/22 01:41:37;;;;;;;9.50;7.03;;;;;;;9.11;100.00;100187.53;4958727;28;20047;-80
2020/12/22 01:44:15;;;;;;;8.50;6.78;;;;;;;9.10;100.00;100180.53;4959661;28;20630;-77
2020/12/22 01:46:48;;;;;;;7.55;5.95;;;;;;;9.11;100.00;100182.25;4978045;28;20108;-82
2020/12/22 01:49:20;;;;;;;8.80;6.72;;;;;;;9.12;100.00;100183.97;4973879;28;20051;-77
2020/12/22 01:51:48;;;;;;;9.75;7.00;;;;;;;9.14;100.00;100190.00;4979390;28;20050;-77
2020/12/22 01:54:16;;;;;;;9.98;6.70;;;;;;;9.16;100.00;100196.09;4973896;28;20129;-77
2020/12/22 01:56:43;;;;;;;8.45;6.50;;;;;;;9.20;100.00;100184.47;4968023;28;20158;-77
2020/12/22 01:59:11;;;;;;;6.93;6.07;;;;;;;9.24;100.00;100180.75;4968791;28;20053;-78
2020/12/22 02:01:37;;;;;;;6.35;5.65;;;;;;;9.25;100.00;100181.63;4981413;28;20045;-77
2020/12/22 02:04:07;;;;;;;6.25;5.57;;;;;;;9.24;100.00;100187.81;4976523;28;20563;-80
2020/12/22 02:06:34;;;;;;;6.30;5.50;;;;;;;9.24;100.00;100183.41;4975871;28;20538;-77
2020/12/22 02:09:04;;;;;;;6.82;6.07;;;;;;;9.23;100.00;100181.69;4965596;28;20043;-79
2020/12/22 02:11:32;;;;;;;6.72;5.75;;;;;;;9.26;100.00;100184.19;4958241;28;20050;-81
2020/12/22 02:14:01;;;;;;;6.93;5.85;;;;;;;9.27;100.00;100199.13;4963070;28;20062;-79
2020/12/22 02:16:27;;;;;;;6.35;5.38;;;;;;;9.29;100.00;100201.66;4966395;28;20141;-78
2020/12/22 02:18:55;;;;;;;7.72;5.07;;;;;;;9.31;100.00;100205.97;4983004;28;20062;-82
2020/12/22 02:21:22;;;;;;;5.45;4.53;;;;;;;9.33;100.00;100195.34;4983581;28;20205;-80
2020/12/22 02:23:49;;;;;;;5.15;4.65;;;;;;;9.34;100.00;100200.56;4980063;28;20094;-79
2020/12/22 02:26:16;;;;;;;5.30;4.80;;;;;;;9.35;100.00;100196.13;4963992;28;20043;-76
2020/12/22 02:28:43;;;;;;;5.35;4.85;;;;;;;9.36;100.00;100188.13;4971250;28;20130;-78
2020/12/22 02:31:09;;;;;;;5.65;4.00;;;;;;;9.38;100.00;100196.84;4969976;28;20039;-78
2020/12/22 02:33:36;;;;;;;7.22;4.93;;;;;;;9.38;100.00;100196.00;4971814;28;20107;-78
2020/12/22 02:36:10;;;;;;;5.18;4.10;;;;;;;9.41;100.00;100195.84;4985145;28;20074;-78
2020/12/22 02:38:38;;;;;;;5.28;4.15;;;;;;;9.39;100.00;100188.00;4994968;28;20066;-78
2020/12/22 02:41:06;;;;;;;5.75;4.68;;;;;;;9.42;100.00;100185.22;4993381;28;20042;-77
2020/12/22 02:43:33;;;;;;;8.50;4.55;;;;;;;9.47;100.00;100198.19;4996649;28;20106;-79
2020/12/22 02:45:59;;;;;;;5.53;4.38;;;;;;;9.45;100.00;100185.06;4975095;28;20443;-76
2020/12/22 02:48:27;;;;;;;5.07;4.15;;;;;;;9.48;100.00;100187.56;4972698;28;20043;-76
2020/12/22 02:50:54;;;;;;;6.70;4.68;;;;;;;9.49;100.00;100191.94;4980095;28;20480;-78
2020/12/22 02:53:21;;;;;;;5.35;4.20;;;;;;;9.50;100.00;100174.28;4979461;28;20047;-79
2020/12/22 02:55:47;;;;;;;6.38;4.05;;;;;;;9.54;100.00;100172.38;4977441;28;20039;-81
2020/12/22 02:58:14;;;;;;;7.80;3.78;;;;;;;9.51;100.00;100173.34;4980206;28;20042;-79
2020/12/22 03:00:41;;;;;;;5.60;4.25;;;;;;;9.52;100.00;100188.28;4988833;28;20115;-78
2020/12/22 03:03:09;;;;;;;5.00;3.85;;;;;;;9.53;100.00;100183.88;4985427;28;20374;-79
2020/12/22 03:05:35;;;;;;;5.07;3.53;;;;;;;9.55;100.00;100184.66;4986373;28;20078;-78
2020/12/22 03:08:03;;;;;;;5.82;3.08;;;;;;;9.54;100.00;100188.22;4980450;28;20141;-77
2020/12/22 03:10:30;;;;;;;4.50;3.30;;;;;;;9.56;100.00;100197.81;4975931;28;20039;-77
2020/12/22 03:12:57;;;;;;;4.68;3.20;;;;;;;9.58;100.00;100200.38;4972371;28;20074;-78
2020/12/22 03:15:23;;;;;;;2.75;2.50;;;;;;;9.60;100.00;100195.88;4964893;28;20066;-78
2020/12/22 03:17:49;;;;;;;3.28;2.10;;;;;;;9.63;100.00;100185.13;4972818;28;20051;-78
2020/12/22 03:20:16;;;;;;;2.33;1.80;;;;;;;9.67;100.00;100179.66;4967196;28;20040;-78
2020/12/22 03:22:43;;;;;;;2.40;1.77;;;;;;;9.70;100.00;100165.44;4971988;28;20058;-77
2020/12/22 03:25:11;;;;;;;1.95;1.40;;;;;;;9.69;100.00;100169.00;4970077;28;20074;-78
2020/12/22 03:27:39;;;;;;;1.35;1.20;;;;;;;9.74;100.00;100161.72;4966233;28;20054;-78
2020/12/22 03:30:11;;;;;;;0.93;0.82;;;;;;;9.76;100.00;100167.78;4950540;28;20042;-81
2020/12/22 03:32:38;;;;;;;0.85;0.80;;;;;;;9.83;100.00;100171.84;4969468;28;20039;-80
2020/12/22 03:35:07;;;;;;;1.35;0.77;;;;;;;9.85;100.00;100170.84;4963359;28;20130;-76
2020/12/22 03:37:33;;;;;;;0.50;0.43;;;;;;;9.91;100.00;100158.28;4969807;28;20039;-81
2020/12/22 03:40:00;;;;;;;0.40;0.40;;;;;;;9.94;100.00;100163.41;4963400;28;20083;-77
2020/12/22 03:42:27;;;;;;;0.50;0.50;;;;;;;9.98;100.00;100165.81;4965415;28;20038;-79
2020/12/22 03:44:54;;;;;;;1.70;0.50;;;;;;;10.02;100.00;100163.91;4972932;28;20051;-77
2020/12/22 03:47:21;;;;;;;1.30;0.40;;;;;;;10.00;100.00;100157.81;4970257;28;20047;-79
2020/12/22 03:49:48;;;;;;;0.50;0.50;;;;;;;10.02;100.00;100167.41;4969995;28;20474;-77
2020/12/22 03:52:15;;;;;;;0.82;0.40;;;;;;;10.06;100.00;100150.47;4963197;28;20062;-79
2020/12/22 03:54:41;;;;;;;1.98;0.40;;;;;;;10.08;100.00;100156.50;4965437;28;20497;-78
2020/12/22 03:57:08;;;;;;;1.40;0.40;;;;;;;10.03;100.00;100150.59;4969793;28;20043;-79
2020/12/22 03:59:35;;;;;;;2.33;0.50;;;;;;;10.10;100.00;100125.53;4967857;28;20498;-80
2020/12/22 04:02:03;;;;;;;0.32;0.32;;;;;;;10.08;100.00;100122.09;4967216;28;20130;-81
2020/12/22 04:04:31;;;;;;;0.65;0.30;;;;;;;10.07;100.00;100106.34;4965678;28;20102;-78
2020/12/22 04:06:57;;;;;;;1.15;0.50;;;;;;;10.08;100.00;100092.16;4968976;28;20043;-81
2020/12/22 04:09:24;;;;;;;1.27;0.60;;;;;;;10.11;100.00;100097.28;4957971;28;20138;-79
2020/12/22 04:11:52;;;;;;;1.17;0.60;;;;;;;10.16;100.00;100098.78;4957758;28;20049;-81
2020/12/22 04:14:19;;;;;;;1.30;0.50;;;;;;;10.23;100.00;100106.47;4963566;28;20119;-77
2020/12/22 04:16:47;;;;;;;0.60;0.60;;;;;;;10.23;100.00;100103.81;4965160;28;20065;-79
2020/12/22 04:19:15;;;;;;;2.28;1.10;;;;;;;10.26;100.00;100101.84;4973141;28;20054;-78
2020/12/22 04:21:43;;;;;;;0.77;0.77;;;;;;;10.27;100.00;100116.81;4969965;28;20050;-78
2020/12/22 04:24:10;;;;;;;1.65;1.10;;;;;;;10.28;100.00;100126.47;4967510;28;20047;-78
2020/12/22 04:26:36;;;;;;;1.15;1.05;;;;;;;10.27;100.00;100124.75;4953376;28;20042;-82
2020/12/22 04:29:03;;;;;;;1.92;0.98;;;;;;;10.25;100.00;100123.97;4966419;28;20596;-77
2020/12/22 04:31:30;;;;;;;3.10;1.10;;;;;;;10.25;100.00;100123.97;4970373;28;20047;-80
2020/12/22 04:33:58;;;;;;;1.30;1.00;;;;;;;10.28;100.00;100110.56;4969565;28;20054;-82
2020/12/22 04:36:25;;;;;;;1.10;1.00;;;;;;;10.29;100.00;100127.31;4975297;28;20491;-79
2020/12/22 04:38:53;;;;;;;1.00;1.00;;;;;;;10.28;100.00;100125.59;4976475;28;20043;-76
2020/12/22 04:41:22;;;;;;;2.55;1.30;;;;;;;10.26;100.00;100124.81;4967676;28;20050;-76
2020/12/22 04:43:51;;;;;;;1.23;1.00;;;;;;;10.31;100.00;100146.63;4972771;28;20055;-78
2020/12/22 04:46:21;;;;;;;1.13;0.80;;;;;;;10.35;100.00;100138.47;4981005;28;20051;-78
2020/12/22 04:48:54;;;;;;;1.08;0.90;;;;;;;10.32;100.00;100137.75;4983100;28;20047;-76
2020/12/22 04:51:24;;;;;;;1.15;1.08;;;;;;;10.33;100.00;100131.53;4974528;28;20378;-77
2020/12/22 04:54:06;;;;;;;1.15;0.82;;;;;;;10.29;100.00;100144.06;4976039;28;20438;-79
2020/12/22 04:56:33;;;;;;;1.27;0.80;;;;;;;10.25;100.00;100131.03;4960691;28;20046;-76
2020/12/22 04:58:59;;;;;;;1.10;1.00;;;;;;;10.27;100.00;100142.41;4978586;28;20370;-79
2020/12/22 05:01:27;;;;;;;2.58;0.70;;;;;;;10.40;100.00;100154.94;4977751;28;20046;-77
2020/12/22 05:03:53;;;;;;;2.63;0.80;;;;;;;10.37;100.00;100151.63;4974618;28;20046;-80
2020/12/22 05:06:20;;;;;;;1.52;0.73;;;;;;;10.40;100.00;100160.25;4972148;28;20055;-79
2020/12/22 05:08:46;;;;;;;0.75;0.60;;;;;;;10.38;100.00;100162.13;4967542;28;20157;-77
2020/12/22 05:11:16;;;;;;;1.80;0.80;;;;;;;10.37;100.00;100154.28;4977419;28;20502;-78
2020/12/22 05:13:46;;;;;;;0.73;0.70;;;;;;;10.37;100.00;100157.78;4970896;28;20457;-77
2020/12/22 05:16:13;;;;;;;0.70;0.70;;;;;;;10.37;100.00;100147.19;4967162;28;20486;-79
2020/12/22 05:18:39;;;;;;;0.50;0.50;;;;;;;10.32;100.00;100146.56;4950526;28;20226;-80
2020/12/22 05:21:20;;;;;;;1.40;0.60;;;;;;;10.40;100.00;100151.44;4972374;28;20051;-77
2020/12/22 05:23:49;;;;;;;0.52;0.50;;;;;;;10.40;100.00;100147.00;4969479;28;20047;-80
2020/12/22 05:26:23;;;;;;;0.45;0.45;;;;;;;10.42;100.00;100147.78;4970345;28;20093;-78
2020/12/22 05:28:50;;;;;;;2.25;0.55;;;;;;;10.46;100.00;100148.50;4963734;28;20320;-76
2020/12/22 05:31:17;;;;;;;0.32;0.32;;;;;;;10.47;100.00;100140.50;4974021;28;20035;-78
2020/12/22 05:33:46;;;;;;;1.20;0.50;;;;;;;10.48;100.00;100154.59;4977267;28;20051;-76
2020/12/22 05:36:13;;;;;;;0.50;0.43;;;;;;;10.55;100.00;100150.69;4981310;28;20135;-84
2020/12/22 05:38:43;;;;;;;0.45;0.45;;;;;;;10.55;100.00;100137.44;4992919;28;20034;-78
2020/12/22 05:41:10;;;;;;;0.40;0.40;;;;;;;10.55;100.00;100140.09;4994542;28;20177;-80
2020/12/22 05:43:38;;;;;;;2.10;0.50;;;;;;;10.60;100.00;100138.06;4992164;28;20059;-82
2020/12/22 05:46:05;;;;;;;0.40;0.40;;;;;;;10.64;100.00;100144.94;4978666;28;20473;-77
2020/12/22 05:48:32;;;;;;;1.13;0.40;;;;;;;10.69;100.00;100158.81;4970304;28;20066;-81
2020/12/22 05:51:06;;;;;;;0.82;0.30;;;;;;;10.72;100.00;100153.31;4967395;28;21189;-77
2020/12/22 05:53:41;;;;;;;0.75;0.30;;;;;;;10.77;100.00;100156.59;4969865;28;20054;-77
2020/12/22 05:56:15;;;;;;;0.30;0.30;;;;;;;10.86;100.00;100152.63;4965615;28;20061;-81
2020/12/22 05:58:42;;;;;;;0.75;0.30;;;;;;;10.92;100.00;100149.66;4971562;28;20046;-77
2020/12/22 06:01:12;;;;;;;0.30;0.30;;;;;;;10.89;100.00;100155.09;4975526;28;20074;-78
2020/12/22 06:03:42;;;;;;;0.30;0.20;;;;;;;10.90;100.00;100157.66;4977253;28;20070;-84
2020/12/22 06:06:09;;;;;;;0.88;0.30;;;;;;;10.90;100.00;100151.50;4959478;28;20062;-82
2020/12/22 06:08:37;;;;;;;1.17;0.40;;;;;;;10.93;100.00;100145.22;4972543;28;20047;-80
2020/12/22 06:11:10;;;;;;;0.52;0.30;;;;;;;10.99;100.00;100139.59;4993344;28;20064;-78
2020/12/22 06:13:37;;;;;;;0.50;0.30;;;;;;;10.98;100.00;100133.44;4984908;28;20102;-77
2020/12/22 06:16:13;;;;;;;0.20;0.20;;;;;;;10.99;100.00;100153.72;4971228;28;20119;-77
2020/12/22 06:18:39;;;;;;;0.35;0.35;;;;;;;10.96;100.00;100160.94;4971576;28;20039;-78
2020/12/22 06:21:08;;;;;;;0.30;0.20;;;;;;;11.06;100.00;100164.81;4972025;28;20517;-78
2020/12/22 06:23:35;;;;;;;0.57;0.30;;;;;;;11.05;100.00;100161.31;4974492;28;20216;-77
2020/12/22 06:26:04;;;;;;;1.70;0.40;;;;;;;11.03;100.00;100170.28;4971561;28;20043;-78
2020/12/22 06:28:31;;;;;;;0.47;0.30;;;;;;;11.00;100.00;100179.25;4969392;28;20365;-79
2020/12/22 06:30:58;;;;;;;0.68;0.30;;;;;;;11.00;100.00;100187.22;4971803;28;20390;-79
2020/12/22 06:33:37;;;;;;;0.25;0.25;;;;;;;10.98;100.00;100178.47;4965783;28;20051;-78
2020/12/22 06:36:07;;;;;;;0.85;0.77;;;;;;;11.00;100.00;100179.25;4969947;28;20043;-77
2020/12/22 06:38:56;;;;;;;0.15;0.13;;;;;;;11.03;100.00;100194.13;4965205;28;20043;-79
2020/12/22 06:41:32;;;;;;;0.38;0.20;;;;;;;11.07;100.00;100200.97;4968566;28;20067;-78
2020/12/22 06:44:17;;;;;;;0.20;0.20;;;;;;;11.11;100.00;100210.50;4975320;28;20055;-78
2020/12/22 06:46:59;;;;;;;0.20;0.20;;;;;;;11.10;100.00;100204.34;4961558;28;20126;-78
2020/12/22 06:49:54;;;;;;;0.20;0.20;;;;;;;11.06;100.00;100209.88;4968774;28;20055;-81
2020/12/22 06:52:31;;;;;;;0.35;0.22;;;;;;;11.06;100.00;100194.81;4967060;28;20102;-78
2020/12/22 06:54:58;;;;;;;0.20;0.10;;;;;;;11.03;100.00;100197.63;4972340;28;20198;-77
2020/12/22 06:57:46;;;;;;;0.52;0.20;;;;;;;11.03;100.00;100202.06;4974144;28;20370;-80
2020/12/22 07:00:26;;;;;;;1.25;0.20;;;;;;;11.05;100.00;100209.00;4970610;28;20516;-78
2020/12/22 07:03:14;;;;;;;0.47;0.30;;;;;;;11.04;100.00;100209.09;4966332;28;20042;-79
2020/12/22 07:05:46;;;;;;;0.30;0.30;;;;;;;11.01;100.00;100214.56;4970392;28;20416;-80
2020/12/22 07:08:17;;;;;;;1.65;0.30;;;;;;;11.00;100.00;100207.56;4977535;28;20042;-78
2020/12/22 07:10:49;;;;;;;0.90;0.40;;;;;;;11.01;100.00;100206.63;4966909;28;20079;-78
2020/12/22 07:13:19;;;;;;;0.55;0.20;;;;;;;10.97;100.00;100211.22;4960253;28;20481;-78
2020/12/22 07:15:49;;;;;;;1.05;0.20;;;;;;;10.99;100.00;100217.28;4964481;28;20463;-79
2020/12/22 07:18:30;;;;;;;1.30;0.28;;;;;;;11.02;100.00;100213.63;4965077;28;20054;-77
2020/12/22 07:20:58;;;;;;;2.75;0.40;;;;;;;10.99;100.00;100224.38;4969259;28;20055;-79
2020/12/22 07:23:25;;;;;;;0.20;0.20;;;;;;;10.96;100.00;100220.09;4964993;28;20057;-77
2020/12/22 07:25:51;;;;;;;0.20;0.20;;;;;;;10.94;100.00;100221.09;4970340;28;20039;-81
2020/12/22 07:28:18;;;;;;;0.30;0.25;;;;;;;10.99;100.00;100240.28;4963544;28;20054;-80
2020/12/22 07:30:45;;;;;;;0.35;0.20;;;;;;;11.08;100.00;100247.75;4974359;28;20038;-78
2020/12/22 07:33:12;;;;;;;0.73;0.30;;;;;;;11.12;100.00;100234.28;4978402;28;20054;-76
2020/12/22 07:35:39;;;;;;;0.47;0.30;;;;;;;11.09;100.00;100239.72;4983353;28;20077;-83
2020/12/22 07:38:10;;;;;;;0.40;0.30;;;;;;;11.10;100.00;100243.22;4975636;28;20051;-79
2020/12/22 07:40:41;;;;;;;3.53;0.50;;;;;;;11.06;100.00;100241.66;4981352;28;20046;-79
2020/12/22 07:43:10;;;;;;;1.65;0.20;;;;;;;11.08;100.00;100245.97;4975094;28;20038;-77
2020/12/22 07:45:48;;;;;;;1.10;0.30;;;;;;;11.11;100.00;100244.94;4976345;28;20067;-78
2020/12/22 07:48:15;;;;;;;0.40;0.30;;;;;;;11.15;100.00;100243.84;4972153;28;20183;-77
2020/12/22 07:50:42;;;;;;;1.75;0.30;;;;;;;11.15;100.00;100257.97;4977503;28;20043;-78
2020/12/22 07:53:10;;;;;;;0.35;0.30;;;;;;;11.16;100.00;100245.56;4993077;28;20066;-78
2020/12/22 07:55:40;;;;;;;0.22;0.20;;;;;;;11.21;100.00;100262.94;4988479;28;20054;-86
2020/12/22 07:58:08;;;;;;;0.30;0.30;;;;;;;11.23;100.00;100262.84;4994848;28;20062;-76
2020/12/22 08:00:35;;;;;;;0.50;0.20;;;;;;;11.24;100.00;100261.91;4988265;28;20051;-77
2020/12/22 08:03:18;;;;;;;0.75;0.20;;;;;;;11.24;100.00;100261.91;4988341;28;20047;-77
2020/12/22 08:06:00;;;;;;;1.13;0.30;;;;;;;11.21;100.00;100256.78;4985207;28;20071;-77
2020/12/22 08:08:27;;;;;;;0.43;0.40;;;;;;;11.20;100.00;100252.41;4986176;28;20126;-83
2020/12/22 08:10:54;;;;;;;0.50;0.50;;;;;;;11.18;100.00;100247.19;4987004;28;20066;-83
2020/12/22 08:13:29;;;;;;;0.75;0.30;;;;;;;11.20;100.00;100249.75;4988220;28;20051;-78
2020/12/22 08:15:58;;;;;;;0.68;0.35;;;;;;;11.21;100.00;100257.63;4995995;28;20049;-80
2020/12/22 08:18:28;;;;;;;0.30;0.30;;;;;;;11.22;100.00;100261.13;4974006;28;20132;-79
2020/12/22 08:20:57;;;;;;;0.40;0.30;;;;;;;11.21;100.00;100259.44;4975522;28;20039;-77
2020/12/22 08:23:24;;;;;;;0.30;0.30;;;;;;;11.24;100.00;100252.19;4985490;28;20490;-77
2020/12/22 08:25:51;;;;;;;0.43;0.30;;;;;;;11.28;100.00;100263.47;4987415;28;20042;-80
2020/12/22 08:28:22;;;;;;;8.93;5.63;;;;;;;11.31;100.00;100267.78;4980190;28;20061;-77
2020/12/22 08:30:50;;;;;;;1.65;0.52;;;;;;;11.32;100.00;100265.06;4978093;28;20042;-80
2020/12/22 08:33:20;;;;;;;0.50;0.30;;;;;;;11.34;100.00;100263.16;4956037;28;20073;-77
2020/12/22 08:35:49;;;;;;;;;;;;;;;11.38;99.90;100264.72;4958715;28;20042;-78
2020/12/22 08:38:27;;;;;;;9.25;1.60;;;;;;;11.41;99.77;100261.03;4968205;28;19926;-78
2020/12/22 08:40:55;;;;;;;0.73;0.30;;;;;;;11.44;99.35;100266.19;4968608;28;20061;-77
2020/12/22 08:43:24;;;;;;;1.92;0.90;;;;;;;11.47;98.97;100269.56;4973497;28;20114;-83
2020/12/22 08:45:52;;;;;;;0.52;0.50;;;;;;;11.51;98.45;100271.06;4964500;28;20051;-80
2020/12/22 08:48:18;;;;;;;3.47;2.33;;;;;;;11.52;98.91;100277.25;4970480;28;20117;-79
2020/12/22 08:50:52;;;;;;;1.45;0.30;;;;;;;11.55;98.45;100270.00;4966149;28;20043;-75
2020/12/22 08:53:35;;;;;;;1.25;0.50;;;;;;;11.58;98.29;100274.28;4969250;28;20085;-80
2020/12/22 08:56:09;;;;;;;0.52;0.40;;;;;;;11.59;98.17;100276.84;4952951;28;20416;-81
2020/12/22 08:58:51;;;;;;;0.90;0.35;;;;;;;11.63;98.21;100282.00;4961754;28;20046;-75
2020/12/22 09:01:22;;;;;;;3.25;1.50;;;;;;;11.64;98.11;100281.91;4966505;28;20097;-80
2020/12/22 09:03:59;;;;;;;0.50;0.40;;;;;;;11.62;98.10;100297.06;4976562;28;20125;-83
2020/12/22 09:06:39;;;;;;;1.67;0.50;;;;;;;11.68;98.41;100301.16;4985966;28;20045;-81
2020/12/22 09:09:17;;;;;;;0.43;0.30;;;;;;;11.76;97.30;100305.16;4988138;28;20129;-77
2020/12/22 09:11:46;;;;;;;0.47;0.45;;;;;;;11.79;97.09;100291.75;4962353;28;20056;-79
2020/12/22 09:14:16;;;;;;;3.70;0.93;;;;;;;11.81;96.77;100295.16;4967514;28;20046;-78
2020/12/22 09:16:50;;;;;;;4.30;0.65;;;;;;;11.82;96.63;100294.22;4966838;28;20055;-81
2020/12/22 09:19:37;;;;;;;0.30;0.30;;;;;;;11.89;96.04;100297.41;4960476;28;20053;-80
2020/12/22 09:22:04;;;;;;;1.42;0.30;;;;;;;11.89;95.55;100295.59;4971667;28;20176;-80
2020/12/22 09:24:33;;;;;;;0.40;0.30;;;;;;;11.96;95.71;100298.81;4967370;28;20055;-83
2020/12/22 09:27:04;;;;;;;1.17;0.30;;;;;;;11.97;95.42;100297.84;4963453;28;20047;-78
2020/12/22 09:29:31;;;;;;;0.77;0.47;;;;;;;11.99;95.35;100311.03;4977585;28;20062;-80
2020/12/22 09:31:59;;;;;;;0.30;0.30;;;;;;;12.05;94.64;100311.56;4985434;28;20042;-77
2020/12/22 09:34:27;;;;;;;1.15;0.40;;;;;;;12.05;94.39;100305.41;4986390;28;20098;-81
2020/12/22 09:36:56;;;;;;;1.27;0.20;;;;;;;12.09;94.00;100307.81;4979216;28;20566;-83
2020/12/22 09:39:24;;;;;;;3.70;0.30;;;;;;;12.10;94.13;100317.47;4984738;28;20146;-78
2020/12/22 09:41:52;;;;;;;0.40;0.30;;;;;;;12.11;94.59;100319.19;4985306;28;20446;-79
2020/12/22 09:44:19;;;;;;;0.93;0.43;;;;;;;12.16;94.18;100330.41;4966139;28;20411;-78
2020/12/22 09:46:51;;;;;;;0.70;0.30;;;;;;;12.14;93.84;100318.16;4973766;28;20129;-84
2020/12/22 09:49:18;;;;;;;0.90;0.30;;;;;;;12.20;94.32;100318.69;4975109;28;20094;-79
2020/12/22 09:51:45;;;;;;;0.50;0.40;;;;;;;12.14;94.03;100324.31;4959543;28;20078;-78
2020/12/22 09:54:17;;;;;;;0.52;0.40;;;;;;;12.25;94.26;100329.91;4980804;28;20152;-79
2020/12/22 09:56:44;;;;;;;0.65;0.30;;;;;;;12.28;93.76;100329.72;4974976;28;20054;-80
2020/12/22 09:59:12;;;;;;;1.48;0.22;;;;;;;12.39;93.16;100323.84;4974007;28;20074;-78
2020/12/22 10:01:39;;;;;;;0.50;0.35;;;;;;;12.50;92.56;100333.84;4964595;28;20559;-77
2020/12/22 10:04:05;;;;;;;0.30;0.30;;;;;;;12.59;91.70;100325.41;4968054;28;20465;-78
2020/12/22 10:06:32;;;;;;;1.27;0.30;;;;;;;12.62;91.37;100331.38;4960365;28;20043;-77
2020/12/22 10:09:00;;;;;;;0.38;0.20;;;;;;;12.70;90.78;100332.75;4977106;28;20062;-81
2020/12/22 10:11:26;;;;;;;0.32;0.30;;;;;;;12.68;90.92;100330.16;4966469;28;20463;-78
2020/12/22 10:13:53;;;;;;;0.22;0.20;;;;;;;12.66;90.97;100318.78;4966082;28;20647;-81
2020/12/22 10:16:22;;;;;;;0.93;0.40;;;;;;;12.73;91.01;100324.59;4975500;28;20479;-80
2020/12/22 10:18:49;;;;;;;0.20;0.20;;;;;;;12.74;91.18;100323.66;4974964;28;20134;-81
2020/12/22 10:21:20;;;;;;;0.40;0.40;;;;;;;12.79;91.05;100322.44;4964622;28;20140;-81
2020/12/22 10:23:47;;;;;;;0.73;0.30;;;;;;;12.87;90.27;100338.81;4972604;28;20089;-79
2020/12/22 10:26:16;;;;;;;0.40;0.30;;;;;;;12.95;90.15;100333.03;4977318;28;20195;-82
2020/12/22 10:28:44;;;;;;;0.60;0.30;;;;;;;12.97;89.69;100329.34;4972238;28;20051;-84
2020/12/22 10:31:13;;;;;;;0.20;0.20;;;;;;;13.00;89.41;100331.00;4979647;28;20142;-80
2020/12/22 10:33:39;;;;;;;3.05;0.40;;;;;;;12.98;89.62;100333.72;4971422;28;20043;-80
2020/12/22 10:36:07;;;;;;;0.85;0.30;;;;;;;12.94;89.58;100329.53;4978817;28;20051;-82
2020/12/22 10:38:52;;;;;;;0.35;0.30;;;;;;;12.93;89.55;100333.13;4977415;28;20039;-80
2020/12/22 10:41:19;;;;;;;0.35;0.32;;;;;;;13.00;89.45;100333.66;4974722;28;20069;-79
2020/12/22 10:43:51;;;;;;;0.38;0.30;;;;;;;13.05;89.50;100336.91;4976100;28;20054;-81
2020/12/22 10:46:18;;;;;;;0.40;0.40;;;;;;;13.06;89.33;100338.63;4976337;28;20069;-79
2020/12/22 10:48:48;;;;;;;0.28;0.25;;;;;;;13.12;89.35;100342.69;4973963;28;20437;-77
2020/12/22 10:51:15;;;;;;;0.57;0.38;;;;;;;13.15;89.30;100342.56;4969407;28;20049;-77
2020/12/22 10:53:41;;;;;;;0.55;0.40;;;;;;;13.10;89.33;100339.28;4970745;28;20081;-81
2020/12/22 10:56:13;;;;;;;0.20;0.20;;;;;;;13.13;89.14;100349.72;4973428;28;20051;-78
2020/12/22 10:58:41;;;;;;;0.65;0.35;;;;;;;13.14;89.10;100357.63;4969070;28;20038;-79
2020/12/22 11:01:12;;;;;;;0.60;0.30;;;;;;;13.18;89.37;100363.66;4951287;28;20047;-78
2020/12/22 11:03:39;;;;;;;0.40;0.30;;;;;;;13.18;89.05;100355.69;4966423;28;20078;-80
2020/12/22 11:06:16;;;;;;;0.28;0.28;;;;;;;13.18;88.83;100356.53;4965526;28;20043;-78
2020/12/22 11:08:43;;;;;;;0.30;0.30;;;;;;;13.25;88.70;100349.03;4972693;28;20434;-78
2020/12/22 11:11:10;;;;;;;1.33;0.40;;;;;;;13.34;88.17;100351.19;4975944;28;20391;-79
2020/12/22 11:13:37;;;;;;;0.77;0.57;;;;;;;13.43;88.76;100361.25;4981209;28;20119;-78
2020/12/22 11:16:06;;;;;;;0.30;0.30;;;;;;;13.50;88.44;100356.44;4981238;28;20046;-78
2020/12/22 11:18:40;;;;;;;0.40;0.40;;;;;;;13.62;88.33;100350.38;4977739;28;20101;-79
2020/12/22 11:21:10;;;;;;;2.63;1.10;;;;;;;13.82;87.08;100351.84;4979141;28;20042;-80
2020/12/22 11:23:45;;;;;;;0.60;0.60;;;;;;;13.99;86.34;100349.88;4983385;28;20046;-78
2020/12/22 11:26:20;;;;;;;0.70;0.57;;;;;;;14.17;85.94;100357.63;4985826;28;20458;-78
2020/12/22 11:28:47;;;;;;;3.17;1.48;;;;;;;14.23;85.29;100355.47;4974519;28;20063;-79
2020/12/22 11:31:13;;;;;;;0.95;0.40;;;;;;;14.24;84.81;100353.66;4974076;28;20047;-78